Time;durP1;ratioP1;P1;durP2;ratioP2;P2;SDS_P1;SDS_P2;PMS_P1;PMS_P2;Temp;Humidity;BMP_temperature;BMP_pressure;BME280_temperature;BME280_humidity;BME280_pressure;Samples;Min_cycle;Max_cycle;Signal;HPM_P1;HPM_P2
2022/08/24 00:00:25;;;;;;;;;2.00;2.00;28.90;99.90;;;;;;5035588;28;8848;-66
2022/08/24 00:02:58;;;;;;;;;2.00;2.00;28.90;99.90;;;;;;5056640;28;8817;-65
2022/08/24 00:05:33;;;;;;;;;1.00;1.00;28.80;99.90;;;;;;5042035;28;8890;-66
2022/08/24 00:08:04;;;;;;;;;1.40;1.40;28.70;99.90;;;;;;5025132;28;8856;-65
2022/08/24 00:10:37;;;;;;;;;1.00;1.00;28.80;99.90;;;;;;5034132;28;8838;-69
2022/08/24 00:13:08;;;;;;;;;2.00;2.00;28.70;99.90;;;;;;5016200;28;8840;-70
2022/08/24 00:15:39;;;;;;;;;2.00;2.00;28.70;99.90;;;;;;5034921;28;8863;-66
2022/08/24 00:18:10;;;;;;;;;1.60;1.60;28.80;99.90;;;;;;5030266;28;8982;-65
2022/08/24 00:20:44;;;;;;;;;2.00;2.00;28.90;99.90;;;;;;5031786;28;8861;-69
2022/08/24 00:23:15;;;;;;;;;1.40;1.40;29.00;99.90;;;;;;5026855;28;9817;-69
2022/08/24 00:25:46;;;;;;;;;0.00;0.00;29.00;99.90;;;;;;5039053;28;8991;-69
2022/08/24 00:28:18;;;;;;;;;1.00;1.00;29.00;99.90;;;;;;5032791;28;8840;-68
2022/08/24 00:30:49;;;;;;;;;2.00;2.00;28.90;99.90;;;;;;5018935;28;9562;-69
2022/08/24 00:33:19;;;;;;;;;1.00;1.00;28.80;99.90;;;;;;5037323;28;8856;-69
2022/08/24 00:35:50;;;;;;;;;0.80;0.80;28.80;99.90;;;;;;5016529;28;8831;-69
2022/08/24 00:38:22;;;;;;;;;1.00;1.00;28.90;99.90;;;;;;5034994;28;8846;-69
2022/08/24 00:40:56;;;;;;;;;0.80;0.80;28.80;99.90;;;;;;5034870;28;8875;-68
2022/08/24 00:43:31;;;;;;;;;1.00;1.00;28.70;99.90;;;;;;5034438;28;8827;-68
2022/08/24 00:46:14;;;;;;;;;1.80;1.80;28.60;99.90;;;;;;5016846;28;8845;-65
2022/08/24 00:48:47;;;;;;;;;1.00;1.00;28.40;99.90;;;;;;5016220;28;9558;-66
2022/08/24 00:51:29;;;;;;;;;1.40;1.40;28.30;99.90;;;;;;5035050;28;9879;-66
2022/08/24 00:54:07;;;;;;;;;1.00;1.00;28.20;99.90;;;;;;5019590;28;8883;-66
2022/08/24 00:56:44;;;;;;;;;2.20;2.20;28.20;99.90;;;;;;5016675;28;8866;-66
2022/08/24 00:59:26;;;;;;;;;2.00;2.00;28.20;99.90;;;;;;5020082;28;8855;-64
2022/08/24 01:02:06;;;;;;;;;2.00;2.00;28.30;99.90;;;;;;5033491;28;8854;-68
2022/08/24 01:04:56;;;;;;;;;1.00;1.00;28.20;99.90;;;;;;5031841;28;8841;-71
2022/08/24 01:07:29;;;;;;;;;2.80;2.40;28.10;99.90;;;;;;5015275;28;8843;-69
2022/08/24 01:10:10;;;;;;;;;2.00;2.00;28.10;99.90;;;;;;5018641;28;8867;-65
2022/08/24 01:12:45;;;;;;;;;2.00;2.00;28.00;99.90;;;;;;5024243;28;8870;-64
2022/08/24 01:15:34;;;;;;;;;1.60;1.60;28.00;99.90;;;;;;5022839;28;8872;-64
2022/08/24 01:21:11;;;;;;;;;1.40;1.40;27.80;99.90;;;;;;4999760;28;8861;-66
2022/08/24 01:23:46;;;;;;;;;3.60;2.00;27.70;99.90;;;;;;5015180;28;8859;-66
2022/08/24 01:26:41;;;;;;;;;2.00;2.00;27.60;99.90;;;;;;5033856;28;8843;-69
2022/08/24 01:29:26;;;;;;;;;2.00;2.00;27.60;99.90;;;;;;5017616;28;8871;-68
2022/08/24 01:32:02;;;;;;;;;1.40;1.40;27.60;99.90;;;;;;5043283;28;8904;-66
2022/08/24 01:34:34;;;;;;;;;3.00;3.00;27.60;99.90;;;;;;5015165;28;8896;-64
2022/08/24 01:37:09;;;;;;;;;2.00;2.00;27.60;99.90;;;;;;5034314;28;8840;-69
2022/08/24 01:39:45;;;;;;;;;2.80;2.80;27.60;99.90;;;;;;5016806;28;8840;-69
2022/08/24 01:42:15;;;;;;;;;1.80;1.80;27.60;99.90;;;;;;5045800;28;9596;-69
2022/08/24 01:44:47;;;;;;;;;2.40;2.40;27.60;99.90;;;;;;5010971;28;8884;-65
2022/08/24 01:47:21;;;;;;;;;2.20;2.20;27.60;99.90;;;;;;5020119;28;8835;-66
2022/08/24 01:49:51;;;;;;;;;2.00;2.00;27.60;99.90;;;;;;5003645;28;8845;-65
2022/08/24 01:52:25;;;;;;;;;2.40;2.40;27.60;99.90;;;;;;5014987;28;8858;-65
2022/08/24 01:55:16;;;;;;;;;2.00;2.00;27.60;99.90;;;;;;5033865;28;8853;-66
2022/08/24 01:57:54;;;;;;;;;2.00;2.00;27.60;99.90;;;;;;5019296;28;8836;-66
2022/08/24 02:00:32;;;;;;;;;2.80;2.80;27.70;99.90;;;;;;5013771;28;8846;-65
2022/08/24 02:03:05;;;;;;;;;3.00;3.00;27.70;99.90;;;;;;5027652;28;8839;-65
2022/08/24 02:05:37;;;;;;;;;2.00;2.00;27.70;99.90;;;;;;5017519;28;8844;-69
2022/08/24 02:08:15;;;;;;;;;2.00;2.00;27.60;99.90;;;;;;5035964;28;8874;-70
2022/08/24 02:10:47;;;;;;;;;1.40;1.40;27.60;99.90;;;;;;5014057;28;8846;-68
2022/08/24 02:13:27;;;;;;;;;3.00;3.00;27.50;99.90;;;;;;5034419;28;8941;-69
2022/08/24 02:15:57;;;;;;;;;2.00;2.00;27.50;99.90;;;;;;5024341;28;8912;-65
2022/08/24 02:18:32;;;;;;;;;2.80;2.80;27.50;99.90;;;;;;5021114;28;9621;-66
2022/08/24 02:21:02;;;;;;;;;2.40;2.40;27.50;99.90;;;;;;5010119;28;8866;-67
2022/08/24 02:23:33;;;;;;;;;4.80;3.00;27.50;99.90;;;;;;5009225;28;8842;-69
2022/08/24 02:26:09;;;;;;;;;2.00;2.00;27.60;99.90;;;;;;5030567;28;8874;-65
2022/08/24 02:28:40;;;;;;;;;1.00;1.00;27.70;99.90;;;;;;5019535;28;8887;-66
2022/08/24 02:31:12;;;;;;;;;3.00;3.00;27.80;99.90;;;;;;5006111;28;8842;-68
2022/08/24 02:33:45;;;;;;;;;3.80;3.80;27.80;99.90;;;;;;5018506;28;8828;-70
2022/08/24 02:36:22;;;;;;;;;2.00;2.00;27.80;99.90;;;;;;5017186;28;8986;-69
2022/08/24 02:39:01;;;;;;;;;3.00;3.00;27.80;99.90;;;;;;5015807;28;8832;-68
2022/08/24 02:41:34;;;;;;;;;1.00;1.00;27.80;99.90;;;;;;5023179;28;8874;-68
2022/08/24 02:44:06;;;;;;;;;1.60;1.60;27.80;99.90;;;;;;5025555;28;8838;-68
2022/08/24 02:46:41;;;;;;;;;2.00;2.00;27.80;99.90;;;;;;5025758;28;8864;-70
2022/08/24 02:49:12;;;;;;;;;2.00;2.00;27.70;99.90;;;;;;5035047;28;8826;-68
2022/08/24 02:51:47;;;;;;;;;1.20;1.20;27.70;99.90;;;;;;5044782;28;9565;-64
2022/08/24 02:54:19;;;;;;;;;2.00;2.00;27.70;99.90;;;;;;5018932;28;8881;-66
2022/08/24 02:56:56;;;;;;;;;1.60;1.60;27.70;99.90;;;;;;5034899;28;8866;-65
2022/08/24 02:59:30;;;;;;;;;2.00;2.00;27.70;99.90;;;;;;5039760;28;8827;-66
2022/08/24 03:02:05;;;;;;;;;1.60;1.60;27.70;99.90;;;;;;5014902;28;9032;-69
2022/08/24 03:04:37;;;;;;;;;1.80;1.80;27.70;99.90;;;;;;5038719;28;8856;-68
2022/08/24 03:07:08;;;;;;;;;1.40;1.40;27.60;99.90;;;;;;5017255;28;8874;-65
2022/08/24 03:09:40;;;;;;;;;1.40;1.40;27.60;99.90;;;;;;5035104;28;8875;-65
2022/08/24 03:12:10;;;;;;;;;1.40;1.40;27.60;99.90;;;;;;5018837;28;8842;-71
2022/08/24 03:14:46;;;;;;;;;1.00;1.00;27.60;99.90;;;;;;5035209;28;8844;-70
2022/08/24 03:17:20;;;;;;;;;0.00;0.00;27.60;99.90;;;;;;5014170;28;8862;-67
2022/08/24 03:19:50;;;;;;;;;1.00;1.00;27.60;99.90;;;;;;5035279;28;9210;-70
2022/08/24 03:22:24;;;;;;;;;0.20;0.20;27.60;99.90;;;;;;5034077;28;8876;-70
2022/08/24 03:24:56;;;;;;;;;1.00;1.00;27.50;99.90;;;;;;5033792;28;8831;-66
2022/08/24 03:27:28;;;;;;;;;1.00;1.00;27.50;99.90;;;;;;5019065;28;8867;-66
2022/08/24 03:30:04;;;;;;;;;0.40;0.40;27.50;99.90;;;;;;5038150;28;8852;-70
2022/08/24 03:32:40;;;;;;;;;0.00;0.00;27.50;99.90;;;;;;5028291;28;10093;-70
2022/08/24 03:35:13;;;;;;;;;1.00;1.00;27.50;99.90;;;;;;5019907;28;8971;-67
2022/08/24 03:37:46;;;;;;;;;0.20;0.20;27.40;99.90;;;;;;5028680;28;8914;-68
2022/08/24 03:40:19;;;;;;;;;1.00;1.00;27.30;99.90;;;;;;5036163;28;8848;-69
2022/08/24 03:42:57;;;;;;;;;0.40;0.40;27.30;99.90;;;;;;5034179;28;8844;-66
2022/08/24 03:45:29;;;;;;;;;0.00;0.00;27.40;99.90;;;;;;5020886;28;9561;-67
2022/08/24 03:48:00;;;;;;;;;0.00;0.00;27.30;99.90;;;;;;5015400;28;8859;-66
2022/08/24 03:50:33;;;;;;;;;0.00;0.00;27.30;99.90;;;;;;5011379;28;10437;-64
2022/08/24 03:53:06;;;;;;;;;0.60;0.60;27.30;99.90;;;;;;5040284;28;8873;-65
2022/08/24 03:55:38;;;;;;;;;0.60;0.60;27.20;99.90;;;;;;5008354;28;8909;-64
2022/08/24 03:58:12;;;;;;;;;0.20;0.20;27.20;99.90;;;;;;5017044;28;8886;-68
2022/08/24 04:00:45;;;;;;;;;0.00;0.00;27.20;99.90;;;;;;5024941;28;8882;-72
2022/08/24 04:03:17;;;;;;;;;0.20;0.20;27.20;99.90;;;;;;4989529;28;8862;-69
2022/08/24 04:05:47;;;;;;;;;0.00;0.00;27.20;99.90;;;;;;5035687;28;8869;-69
2022/08/24 04:08:23;;;;;;;;;0.00;0.00;27.20;99.90;;;;;;5009697;28;8906;-71
2022/08/24 04:10:59;;;;;;;;;1.00;1.00;27.20;99.90;;;;;;5014364;28;8836;-68
2022/08/24 04:13:31;;;;;;;;;0.00;0.00;27.10;99.90;;;;;;5002396;28;8847;-69
2022/08/24 04:16:14;;;;;;;;;0.00;0.00;27.10;99.90;;;;;;5030398;28;8842;-69
2022/08/24 04:18:45;;;;;;;;;0.00;0.00;27.10;99.90;;;;;;4987789;28;8867;-67
2022/08/24 04:21:27;;;;;;;;;0.00;0.00;27.10;99.90;;;;;;5011596;28;9499;-69
2022/08/24 04:23:59;;;;;;;;;0.00;0.00;27.10;99.90;;;;;;5017694;28;8877;-71
2022/08/24 04:26:33;;;;;;;;;1.00;1.00;27.00;99.90;;;;;;5012892;28;8849;-70
2022/08/24 04:29:19;;;;;;;;;0.20;0.20;27.00;99.90;;;;;;5026206;28;8842;-71
2022/08/24 04:31:53;;;;;;;;;1.00;1.00;26.90;99.90;;;;;;5034799;28;8849;-71
2022/08/24 04:34:27;;;;;;;;;0.20;0.20;27.00;99.90;;;;;;4999946;28;8852;-70
2022/08/24 04:37:00;;;;;;;;;0.00;0.00;26.90;99.90;;;;;;5023771;28;8874;-70
2022/08/24 04:39:32;;;;;;;;;0.60;0.60;26.90;99.90;;;;;;5023477;28;8834;-71
2022/08/24 04:42:20;;;;;;;;;1.00;1.00;26.90;99.90;;;;;;5048457;28;8879;-71
2022/08/24 04:44:51;;;;;;;;;0.00;0.00;26.80;99.90;;;;;;5029836;28;8842;-69
2022/08/24 04:47:23;;;;;;;;;0.80;0.80;26.90;99.90;;;;;;5022082;28;8847;-72
2022/08/24 04:49:56;;;;;;;;;1.00;1.00;26.80;99.90;;;;;;5017496;28;8875;-72
2022/08/24 04:52:31;;;;;;;;;0.60;0.60;26.80;99.90;;;;;;5017603;28;8902;-69
2022/08/24 04:55:05;;;;;;;;;0.00;0.00;26.80;99.90;;;;;;5001184;28;8891;-71
2022/08/24 04:57:38;;;;;;;;;1.00;1.00;26.80;99.90;;;;;;5014531;28;8852;-68
2022/08/24 05:00:10;;;;;;;;;0.00;0.00;26.80;99.90;;;;;;5025519;28;8836;-68
2022/08/24 05:02:43;;;;;;;;;0.40;0.40;26.70;99.90;;;;;;5012156;28;8871;-68
2022/08/24 05:05:17;;;;;;;;;0.00;0.00;26.70;99.90;;;;;;5024828;28;9622;-73
2022/08/24 05:07:47;;;;;;;;;1.00;1.00;26.70;99.90;;;;;;5030176;28;8872;-71
2022/08/24 05:10:24;;;;;;;;;0.60;0.60;26.70;99.90;;;;;;5017946;28;8871;-71
2022/08/24 05:13:02;;;;;;;;;0.00;0.00;26.70;99.90;;;;;;5033951;28;8859;-71
2022/08/24 05:15:36;;;;;;;;;0.40;0.40;26.70;99.90;;;;;;5016732;28;8910;-71
2022/08/24 05:18:08;;;;;;;;;0.00;0.00;26.60;99.90;;;;;;5005016;28;8850;-71
2022/08/24 05:20:45;;;;;;;;;1.00;1.00;26.60;99.90;;;;;;5028514;28;8855;-70
2022/08/24 05:23:17;;;;;;;;;1.00;1.00;26.60;99.90;;;;;;5017532;28;8847;-67
2022/08/24 05:25:49;;;;;;;;;1.00;1.00;26.50;99.90;;;;;;5010132;28;8865;-71
2022/08/24 05:28:20;;;;;;;;;0.00;0.00;26.60;99.90;;;;;;5016930;28;8820;-71
2022/08/24 05:30:55;;;;;;;;;1.00;1.00;26.50;99.90;;;;;;5014351;28;8844;-68
2022/08/24 05:33:28;;;;;;;;;1.00;1.00;26.50;99.90;;;;;;5019139;28;8865;-69
2022/08/24 05:36:00;;;;;;;;;1.00;1.00;26.50;99.90;;;;;;5017488;28;8888;-70
2022/08/24 05:38:33;;;;;;;;;0.00;0.00;26.60;99.90;;;;;;5000479;28;9606;-69
2022/08/24 05:41:09;;;;;;;;;0.20;0.20;26.50;99.90;;;;;;5011610;28;8879;-68
2022/08/24 05:43:41;;;;;;;;;0.80;0.80;26.50;99.90;;;;;;5018962;28;8844;-69
2022/08/24 05:46:18;;;;;;;;;1.00;1.00;26.50;99.90;;;;;;5012371;28;8881;-70
2022/08/24 05:48:50;;;;;;;;;1.00;1.00;26.50;99.90;;;;;;5029680;28;8848;-72
2022/08/24 05:51:31;;;;;;;;;0.00;0.00;26.50;99.90;;;;;;5011483;28;8873;-72
2022/08/24 05:54:07;;;;;;;;;1.00;1.00;26.50;99.90;;;;;;4992700;28;8866;-71
2022/08/24 05:57:03;;;;;;;;;1.00;1.00;26.50;99.90;;;;;;5012635;28;8858;-69
2022/08/24 05:59:45;;;;;;;;;0.20;0.20;26.40;99.90;;;;;;5010711;28;8869;-70
2022/08/24 06:02:19;;;;;;;;;0.00;0.00;26.40;99.90;;;;;;5016040;28;8856;-71
2022/08/24 06:04:51;;;;;;;;;1.00;1.00;26.40;99.90;;;;;;5011052;28;8892;-71
2022/08/24 06:07:22;;;;;;;;;2.00;1.00;26.30;99.90;;;;;;5006684;28;8877;-70
2022/08/24 06:09:56;;;;;;;;;1.00;1.00;26.30;99.90;;;;;;5005304;28;8860;-70
2022/08/24 06:12:48;;;;;;;;;0.00;0.00;26.30;99.90;;;;;;5005501;28;9904;-68
2022/08/24 06:15:20;;;;;;;;;1.00;1.00;26.30;99.90;;;;;;5016918;28;8854;-69
2022/08/24 06:17:53;;;;;;;;;1.00;1.00;26.30;99.90;;;;;;5007340;28;8877;-69
2022/08/24 06:20:24;;;;;;;;;1.00;1.00;26.30;99.90;;;;;;5017968;28;8842;-70
2022/08/24 06:23:04;;;;;;;;;0.80;0.80;26.30;99.90;;;;;;4998995;28;8869;-69
2022/08/24 06:28:31;;;;;;;;;2.00;2.00;26.20;99.90;;;;;;5019139;28;8849;-71
2022/08/24 06:31:05;;;;;;;;;0.40;0.40;26.20;99.90;;;;;;5014995;28;8855;-71
2022/08/24 06:33:37;;;;;;;;;1.60;1.60;26.20;99.90;;;;;;5015160;28;8865;-71
2022/08/24 06:36:09;;;;;;;;;1.00;1.00;26.20;99.90;;;;;;5014737;28;8841;-68
2022/08/24 06:38:43;;;;;;;;;1.00;1.00;26.10;99.90;;;;;;5017668;28;8872;-69
2022/08/24 06:41:17;;;;;;;;;1.00;1.00;26.20;99.90;;;;;;5011355;28;8853;-68
2022/08/24 06:43:48;;;;;;;;;1.00;1.00;26.20;99.90;;;;;;5021534;28;9014;-69
2022/08/24 06:46:21;;;;;;;;;1.00;1.00;26.20;99.90;;;;;;5017561;28;8885;-71
2022/08/24 06:48:57;;;;;;;;;2.60;1.00;26.10;99.90;;;;;;5026431;28;8883;-72
2022/08/24 06:51:28;;;;;;;;;1.60;1.40;26.10;99.90;;;;;;5014333;28;8837;-67
2022/08/24 06:54:01;;;;;;;;;1.40;1.40;26.10;99.90;;;;;;5033564;28;9591;-69
2022/08/24 06:56:37;;;;;;;;;1.00;1.00;26.00;99.90;;;;;;5014105;28;8865;-68
2022/08/24 06:59:08;;;;;;;;;1.00;1.00;26.00;99.90;;;;;;5002808;28;8844;-68
2022/08/24 07:01:45;;;;;;;;;1.00;1.00;26.00;99.90;;;;;;5003044;28;9618;-69
2022/08/24 07:04:18;;;;;;;;;0.60;0.40;26.00;99.90;;;;;;5019649;28;8854;-69
2022/08/24 07:07:17;;;;;;;;;1.00;1.00;26.00;99.90;;;;;;5010320;28;8848;-68
2022/08/24 07:09:48;;;;;;;;;1.00;1.00;25.90;99.90;;;;;;5017329;28;8869;-70
2022/08/24 07:12:20;;;;;;;;;1.00;1.00;26.00;99.90;;;;;;5015425;28;8865;-70
2022/08/24 07:14:53;;;;;;;;;2.00;2.00;26.00;99.90;;;;;;5033521;28;8849;-68
2022/08/24 07:17:23;;;;;;;;;1.40;1.40;26.00;99.90;;;;;;5027014;28;8889;-69
2022/08/24 07:19:54;;;;;;;;;1.00;1.00;26.00;99.90;;;;;;5020149;28;8888;-70
2022/08/24 07:23:05;;;;;;;;;1.00;1.00;26.00;99.90;;;;;;5013017;28;8834;-68
2022/08/24 07:25:37;;;;;;;;;1.60;1.60;25.90;99.90;;;;;;5011561;28;9124;-71
2022/08/24 07:28:13;;;;;;;;;0.00;0.00;25.90;99.90;;;;;;5036954;28;8967;-72
2022/08/24 07:30:46;;;;;;;;;2.00;2.00;25.80;99.90;;;;;;5010244;28;8881;-69
2022/08/24 07:33:18;;;;;;;;;1.00;1.00;25.80;99.90;;;;;;5022613;28;9411;-68
2022/08/24 07:35:48;;;;;;;;;3.00;1.60;25.80;99.90;;;;;;5029188;28;8845;-68
2022/08/24 07:38:25;;;;;;;;;1.40;1.40;25.80;99.90;;;;;;5011876;28;8901;-69
2022/08/24 07:40:58;;;;;;;;;1.00;1.00;25.80;99.90;;;;;;5028265;28;8866;-71
2022/08/24 07:43:52;;;;;;;;;2.00;2.00;25.80;99.90;;;;;;5023412;28;8859;-71
2022/08/24 07:46:23;;;;;;;;;3.00;2.00;25.70;99.90;;;;;;5012331;28;8917;-68
2022/08/24 07:48:56;;;;;;;;;1.40;1.40;25.70;99.90;;;;;;5025367;28;8843;-69
2022/08/24 07:51:48;;;;;;;;;1.00;1.00;25.70;99.90;;;;;;5024860;28;8834;-70
2022/08/24 07:54:23;;;;;;;;;2.00;2.00;25.70;99.90;;;;;;5017914;28;8843;-71
2022/08/24 07:56:58;;;;;;;;;1.60;1.60;25.70;99.90;;;;;;5056442;28;9059;-70
2022/08/24 07:59:33;;;;;;;;;1.00;1.00;25.70;99.90;;;;;;5011046;28;8864;-71
2022/08/24 08:02:05;;;;;;;;;2.80;2.00;25.60;99.90;;;;;;5010159;28;8859;-69
2022/08/24 08:04:38;;;;;;;;;1.00;1.00;25.60;99.90;;;;;;5013625;28;8876;-69
2022/08/24 08:07:13;;;;;;;;;1.60;1.60;25.50;99.90;;;;;;5006594;28;8865;-72
2022/08/24 08:09:48;;;;;;;;;1.00;1.00;25.50;99.90;;;;;;5012014;28;8868;-72
2022/08/24 08:12:20;;;;;;;;;1.20;1.20;25.40;99.90;;;;;;5008364;28;8845;-71
2022/08/24 08:14:56;;;;;;;;;1.40;1.40;25.40;99.90;;;;;;5009120;28;8845;-71
2022/08/24 08:17:27;;;;;;;;;2.00;2.00;25.40;99.90;;;;;;5028879;28;8853;-71
2022/08/24 08:20:02;;;;;;;;;1.00;1.00;25.30;99.90;;;;;;5015420;28;8834;-69
2022/08/24 08:25:56;;;;;;;;;1.00;1.00;25.30;99.90;;;;;;5002567;28;8860;-68
2022/08/24 08:28:41;;;;;;;;;1.00;1.00;25.30;99.90;;;;;;5016270;28;8889;-70
2022/08/24 08:31:13;;;;;;;;;1.40;1.40;25.30;99.90;;;;;;5006995;28;8868;-69
2022/08/24 08:33:45;;;;;;;;;2.00;2.00;25.30;99.90;;;;;;5013093;28;8838;-69
2022/08/24 08:36:21;;;;;;;;;0.20;0.20;25.20;99.90;;;;;;5002673;28;8867;-69
2022/08/24 08:38:51;;;;;;;;;1.00;1.00;25.20;99.90;;;;;;5008236;28;8897;-69
2022/08/24 08:41:53;;;;;;;;;1.00;1.00;25.20;99.90;;;;;;5020647;28;8884;-73
2022/08/24 08:44:51;;;;;;;;;2.00;2.00;25.10;99.90;;;;;;4994407;28;8864;-71
2022/08/24 08:47:42;;;;;;;;;1.00;1.00;25.20;99.90;;;;;;5016264;28;8878;-71
2022/08/24 08:50:27;;;;;;;;;2.00;2.00;25.10;99.90;;;;;;5009613;28;8866;-68
2022/08/24 08:53:20;;;;;;;;;1.00;1.00;25.00;99.90;;;;;;5011239;28;9584;-69
2022/08/24 08:56:05;;;;;;;;;1.00;1.00;25.00;99.90;;;;;;5014243;28;9647;-71
2022/08/24 08:59:06;;;;;;;;;1.00;1.00;25.00;99.90;;;;;;5008301;28;9646;-71
2022/08/24 09:02:17;;;;;;;;;1.60;1.60;25.00;99.90;;;;;;5012547;28;8845;-69
2022/08/24 09:04:57;;;;;;;;;1.00;1.00;24.90;99.90;;;;;;5009388;28;8873;-71
2022/08/24 09:07:37;;;;;;;;;1.00;1.00;24.90;99.90;;;;;;5030109;28;8850;-71
2022/08/24 09:10:24;;;;;;;;;1.20;1.20;24.90;99.90;;;;;;5008688;28;9045;-71
2022/08/24 09:13:26;;;;;;;;;1.00;1.00;24.90;99.90;;;;;;5014969;28;8948;-70
2022/08/24 09:16:02;;;;;;;;;1.00;1.00;24.80;99.90;;;;;;5007044;28;8933;-69
2022/08/24 09:19:27;;;;;;;;;1.00;1.00;25.00;99.90;;;;;;5011671;28;8873;-69
2022/08/24 09:22:19;;;;;;;;;2.00;2.00;24.80;99.90;;;;;;5011842;28;8850;-69
2022/08/24 09:24:52;;;;;;;;;1.00;1.00;24.80;99.90;;;;;;5047047;28;8900;-70
2022/08/24 09:28:01;;;;;;;;;1.40;1.40;24.80;99.90;;;;;;4999915;28;9724;-71
2022/08/24 09:30:53;;;;;;;;;1.00;1.00;24.80;99.90;;;;;;5010856;28;10335;-69
2022/08/24 09:34:08;;;;;;;;;1.40;1.40;24.70;99.90;;;;;;5005284;28;8868;-69
2022/08/24 09:37:08;;;;;;;;;2.00;2.00;24.70;99.90;;;;;;4992871;28;8879;-69
2022/08/24 09:40:02;;;;;;;;;1.00;1.00;24.70;99.90;;;;;;4976124;28;8872;-68
2022/08/24 09:42:54;;;;;;;;;2.00;2.00;24.60;99.90;;;;;;5012309;28;8875;-71
2022/08/24 09:45:48;;;;;;;;;0.80;0.80;24.70;99.90;;;;;;5026461;28;8874;-68
2022/08/24 09:48:40;;;;;;;;;1.00;1.00;24.70;99.90;;;;;;5017913;28;8994;-69
2022/08/24 09:51:49;;;;;;;;;0.60;0.60;24.70;99.90;;;;;;5034589;28;9578;-69
2022/08/24 09:54:30;;;;;;;;;1.40;1.40;24.70;99.90;;;;;;5011551;28;8974;-70
2022/08/24 09:57:31;;;;;;;;;2.80;2.00;24.70;99.90;;;;;;5033363;28;9346;-70
2022/08/24 10:00:34;;;;;;;;;2.40;2.40;24.60;99.90;;;;;;5031079;28;8968;-72
2022/08/24 10:03:27;;;;;;;;;1.80;1.80;24.50;99.90;;;;;;5031773;28;8866;-69
2022/08/24 10:06:36;;;;;;;;;2.00;2.00;24.40;99.90;;;;;;5017787;28;8894;-71
2022/08/24 10:09:44;;;;;;;;;2.00;2.00;24.40;99.90;;;;;;4998109;28;8854;-71
2022/08/24 10:12:53;;;;;;;;;2.00;2.00;24.30;99.90;;;;;;5018800;28;9824;-71
2022/08/24 10:15:57;;;;;;;;;1.00;1.00;24.50;99.90;;;;;;5019256;28;8858;-70
2022/08/24 10:18:40;;;;;;;;;1.00;1.00;24.50;99.90;;;;;;5003234;28;8871;-71
2022/08/24 10:21:32;;;;;;;;;2.00;2.00;24.30;99.90;;;;;;5044849;28;8830;-71
2022/08/24 10:24:30;;;;;;;;;1.40;1.40;24.30;99.90;;;;;;5034738;28;8830;-69
2022/08/24 10:27:31;;;;;;;;;1.00;1.00;24.30;99.90;;;;;;5036710;28;8881;-69
2022/08/24 10:30:23;;;;;;;;;1.60;1.60;24.30;99.90;;;;;;5035217;28;8861;-69
2022/08/24 10:33:25;;;;;;;;;1.00;1.00;24.30;99.90;;;;;;5022640;28;8850;-69
2022/08/24 10:36:22;;;;;;;;;1.00;1.00;24.30;99.90;;;;;;5032514;28;8949;-68
2022/08/24 10:43:32;;;;;;;;;3.00;3.00;24.20;99.90;;;;;;5028783;28;8889;-71
2022/08/24 10:45:25;;;;;;;;;1.80;1.80;24.20;99.90;;;;;;5035209;28;8877;-69
2022/08/24 10:48:20;;;;;;;;;2.25;2.25;24.30;99.90;;;;;;5013614;28;8824;-68
2022/08/24 10:50:53;;;;;;;;;1.60;1.60;24.30;99.90;;;;;;5012601;28;8836;-73
2022/08/24 10:53:30;;;;;;;;;2.00;2.00;24.30;99.90;;;;;;5025429;28;8858;-72
2022/08/24 10:56:05;;;;;;;;;3.25;2.00;24.20;99.90;;;;;;5033441;28;8893;-72
2022/08/24 10:58:45;;;;;;;;;2.00;2.00;24.20;99.90;;;;;;5014992;28;8851;-71
2022/08/24 11:01:25;;;;;;;;;1.25;1.25;24.00;99.90;;;;;;5029538;28;8832;-70
2022/08/24 11:04:26;;;;;;;;;1.60;1.60;24.10;99.90;;;;;;4998149;28;9562;-69
2022/08/24 11:07:18;;;;;;;;;2.00;2.00;24.10;99.90;;;;;;5027224;28;8838;-67
2022/08/24 11:09:59;;;;;;;;;2.00;2.00;24.00;99.90;;;;;;5040103;28;8875;-69
2022/08/24 11:12:43;;;;;;;;;1.25;1.25;24.00;99.90;;;;;;5015576;28;9790;-71
2022/08/24 11:15:22;;;;;;;;;1.25;1.25;24.10;99.90;;;;;;5038508;28;8843;-71
2022/08/24 11:18:00;;;;;;;;;1.40;1.40;24.20;99.90;;;;;;5018165;28;8847;-71
2022/08/24 11:20:39;;;;;;;;;1.00;1.00;24.20;99.90;;;;;;5027794;28;8856;-68
2022/08/24 11:23:21;;;;;;;;;0.50;0.50;24.20;99.90;;;;;;5043551;28;8849;-68
2022/08/24 11:26:06;;;;;;;;;2.00;2.00;24.30;99.90;;;;;;5032008;28;8835;-67
2022/08/24 11:28:56;;;;;;;;;2.00;2.00;24.20;99.90;;;;;;5034057;28;8836;-67
2022/08/24 11:31:39;;;;;;;;;1.25;1.25;24.10;99.90;;;;;;5016796;28;8851;-70
2022/08/24 11:34:18;;;;;;;;;2.50;2.50;24.00;99.90;;;;;;5034616;28;8856;-70
2022/08/24 11:36:52;;;;;;;;;2.00;2.00;24.00;99.90;;;;;;5033084;28;8881;-70
2022/08/24 11:39:31;;;;;;;;;1.50;1.50;24.00;99.90;;;;;;5012811;28;8876;-71
2022/08/24 11:42:10;;;;;;;;;2.00;2.00;24.00;99.90;;;;;;5033603;28;8832;-71
2022/08/24 11:44:54;;;;;;;;;1.00;1.00;24.10;99.90;;;;;;5032193;28;8855;-70
2022/08/24 11:47:33;;;;;;;;;2.00;2.00;24.00;99.90;;;;;;5021201;28;8864;-71
2022/08/24 11:50:24;;;;;;;;;3.20;3.20;24.10;99.90;;;;;;5018242;28;8874;-65
2022/08/24 11:53:03;;;;;;;;;2.75;2.75;24.00;99.90;;;;;;5027958;28;9169;-65
2022/08/24 11:56:03;;;;;;;;;2.00;2.00;24.00;99.90;;;;;;5029600;28;8855;-72
2022/08/24 11:58:46;;;;;;;;;1.25;1.25;24.00;99.90;;;;;;5012641;28;8881;-71
2022/08/24 12:01:38;;;;;;;;;2.00;2.00;24.10;99.90;;;;;;5035607;28;8854;-64
2022/08/24 12:04:54;;;;;;;;;1.50;1.50;24.10;99.90;;;;;;5027599;28;8872;-61
2022/08/24 12:07:57;;;;;;;;;1.25;1.25;24.20;99.90;;;;;;5035956;28;8847;-61
2022/08/24 12:10:58;;;;;;;;;2.00;2.00;24.20;99.90;;;;;;5017048;28;8847;-69
2022/08/24 12:13:46;;;;;;;;;1.00;1.00;24.20;99.90;;;;;;5015066;28;8836;-69
2022/08/24 12:16:48;;;;;;;;;2.00;2.00;23.90;99.90;;;;;;5035144;28;8850;-69
2022/08/24 12:19:24;;;;;;;;;2.00;2.00;23.70;99.90;;;;;;5015825;28;8852;-69
2022/08/24 12:21:59;;;;;;;;;2.00;2.00;23.70;99.90;;;;;;5020535;28;8863;-70
2022/08/24 12:24:43;;;;;;;;;2.75;2.75;23.90;99.90;;;;;;5032640;28;8839;-70
2022/08/24 12:27:42;;;;;;;;;2.00;2.00;23.90;99.90;;;;;;5046020;28;8867;-70
2022/08/24 12:30:16;;;;;;;;;1.00;1.00;24.10;99.90;;;;;;5018434;28;9485;-64
2022/08/24 12:33:06;;;;;;;;;1.75;1.75;23.90;99.90;;;;;;5013723;28;8836;-65
2022/08/24 12:35:47;;;;;;;;;1.25;1.25;24.00;99.90;;;;;;5025375;28;8882;-64
2022/08/24 12:38:42;;;;;;;;;3.00;1.00;24.20;99.90;;;;;;5046309;28;8920;-65
2022/08/24 12:41:18;;;;;;;;;2.25;2.25;24.10;99.90;;;;;;5029809;28;8850;-70
2022/08/24 12:44:12;;;;;;;;;1.60;1.60;24.20;99.90;;;;;;5014043;28;8856;-70
2022/08/24 12:46:53;;;;;;;;;2.00;2.00;24.30;99.90;;;;;;5029697;28;8844;-62
2022/08/24 12:49:37;;;;;;;;;3.00;3.00;24.30;99.90;;;;;;5033453;28;8841;-61
2022/08/24 12:52:32;;;;;;;;;2.80;2.80;24.30;99.90;;;;;;5039733;28;8869;-68
2022/08/24 12:55:15;;;;;;;;;2.00;2.00;24.30;99.90;;;;;;5017621;28;8848;-62
2022/08/24 12:57:57;;;;;;;;;2.80;2.00;24.40;99.90;;;;;;5029643;28;8831;-62
2022/08/24 13:00:39;;;;;;;;;2.00;2.00;24.40;99.90;;;;;;5030501;28;8863;-70
2022/08/24 13:03:35;;;;;;;;;3.00;3.00;24.40;99.90;;;;;;5031255;28;8985;-71
2022/08/24 13:06:25;;;;;;;;;4.00;2.75;24.50;99.90;;;;;;5035085;28;8843;-71
2022/08/24 13:09:10;;;;;;;;;1.40;1.00;24.50;99.90;;;;;;5022409;28;8868;-71
2022/08/24 13:11:42;;;;;;;;;3.00;2.00;24.50;99.90;;;;;;5024495;28;8852;-71
2022/08/24 13:14:18;;;;;;;;;3.00;3.00;24.60;99.90;;;;;;5012802;28;8855;-70
2022/08/24 13:17:09;;;;;;;;;3.00;3.00;24.60;99.90;;;;;;5018095;28;8868;-71
2022/08/24 13:19:45;;;;;;;;;3.00;3.00;24.60;99.90;;;;;;5037216;28;8948;-69
2022/08/24 13:22:15;;;;;;;;;1.60;1.60;24.60;99.90;;;;;;5011909;28;9533;-70
2022/08/24 13:25:11;;;;;;;;;3.00;1.80;24.70;99.90;;;;;;5030985;28;8866;-70
2022/08/24 13:27:42;;;;;;;;;3.00;3.00;24.70;99.90;;;;;;5023594;28;9623;-69
2022/08/24 13:30:28;;;;;;;;;1.00;1.00;24.70;99.90;;;;;;5037228;28;9600;-63
2022/08/24 13:33:13;;;;;;;;;2.00;2.00;24.70;99.90;;;;;;5010896;28;8863;-62
2022/08/24 13:35:44;;;;;;;;;2.00;2.00;24.80;99.90;;;;;;5042492;28;8868;-67
2022/08/24 13:38:35;;;;;;;;;2.00;2.00;24.80;99.90;;;;;;5003621;28;9777;-68
2022/08/24 13:41:59;;;;;;;;;2.20;2.20;24.80;99.90;;;;;;5022147;28;8863;-61
2022/08/24 13:44:54;;;;;;;;;2.40;2.40;24.90;99.90;;;;;;5024660;28;8851;-64
2022/08/24 13:47:48;;;;;;;;;2.40;2.40;24.90;99.90;;;;;;5031557;28;8856;-67
2022/08/24 13:50:42;;;;;;;;;2.20;2.20;25.00;99.90;;;;;;5033418;28;8828;-63
2022/08/24 13:53:37;;;;;;;;;2.00;2.00;25.10;99.90;;;;;;5026344;28;8842;-64
2022/08/24 13:56:35;;;;;;;;;2.00;2.00;25.10;99.90;;;;;;5030130;28;8857;-63
2022/08/24 13:59:34;;;;;;;;;2.00;2.00;25.00;99.90;;;;;;5012918;28;8855;-63
2022/08/24 14:02:15;;;;;;;;;1.80;1.80;25.10;99.90;;;;;;5020698;28;8853;-63
2022/08/24 14:05:11;;;;;;;;;2.20;2.20;25.10;99.90;;;;;;5011460;28;8858;-65
2022/08/24 14:08:05;;;;;;;;;2.40;2.40;25.20;99.90;;;;;;5012480;28;8860;-65
2022/08/24 14:10:53;;;;;;;;;2.00;2.00;25.20;99.90;;;;;;5026774;28;9597;-67
2022/08/24 14:14:05;;;;;;;;;2.00;2.00;25.30;99.90;;;;;;5012356;28;8880;-67
2022/08/24 14:20:02;;;;;;;;;2.00;2.00;25.40;99.90;;;;;;5033507;28;8854;-67
2022/08/24 14:22:39;;;;;;;;;2.00;2.00;25.40;99.90;;;;;;5026262;28;8841;-67